Jasper, AL (35504)

6:26 AM CDT on September 16, 2014 (GMT -0500)
BranchWater Estates | Change Station
CLOSE
Current Station
Personal Weather Station
Location: JASPER, AL
Elevation: 480 ft
Nearby Weather Stations

Elev 480 ft 33.86 °N, 87.24 °W | Updated 21 seconds ago

Partly Cloudy
Partly Cloudy
72.5 °F
Feels Like 72.5 °F
N
1.0
Wind Variable Wind from North
Gusts 0.0 mph

Today
High -- | Low -- °F
--% Chance of Precip.
Yesterday
High -- | Low -- °F
Precip. -- in
6:32 AM 6:53 PM
Last Quarter, 46% visible
Pressure 30.14 in
Visibility 4.0 miles
Clouds Scattered Clouds 200 ft
Scattered Clouds 3200 ft
Dew Point 71 °F
Humidity 94%
Rainfall 0.00 in
Snow Depth Not available.
UV 0 out of 12
Pollen 8.40 out of 12
Ozone Good
PM2.5 Good
Flu Activity Not available.
METAR KCMD 161115Z AUTO 00000KT 4SM BR SCT002 SCT032 21/21 A3014 RMK AO2 T02070205

More Conditions Fewer Conditions

Pressure 30.14 in
Visibility 4.0 miles
Clouds Scattered Clouds 200 ft
Scattered Clouds 3200 ft
Dew Point 71 °F
Humidity 94%
Rainfall 0.00 in
Snow Depth Not available.
UV 0 out of 12
Pollen 8.40 out of 12
Ozone Good
PM2.5 Good
Flu Activity Not available.
METAR KCMD 161115Z AUTO 00000KT 4SM BR SCT002 SCT032 21/21 A3014 RMK AO2 T02070205

More Conditions Fewer Conditions

10-Day Weather Forecast

Almanac

Astronomy

Sep. 16, 2014 Rise Set
Actual Time 6:32 AM CDT 6:53 PM CDT
Civil Twilight 6:07 AM CDT 7:18 PM CDT
Nautical Twilight 5:38 AM CDT 7:48 PM CDT
Astronomical Twilight 5:08 AM CDT 8:17 PM CDT
Moon No Moon Rise 2:05 PM CDT
Length of Visible Light 13h 11m
Length of Day
12h 21m
Tomorrow will be 2m 5s shorter.
Last Quarter, 46% of the Moon is Illuminated
Today
Last Quarter
Sep 24
New
Oct 1
First Quarter
Oct 8
Full
Oct 15
Last Quarter

Today's Extremes

State Highs State Lows

Community

WunderPhotos

Upload Photos

1,753,724 photos uploaded!

WunderBlogs® & News

By Dr. Jeff Masters
Director of Meteorology, Weather Underground
By Kari Strenfel
Meteorologist, Weather Underground
By Christopher C. Burt
Weather Historian, Weather Underground
September 16, 2014
September 16, 2014
September 16, 2014

Nearby

Air Quality

  Air Quality AQ Index Pollutant
Yesterday Good
PM10
Yesterday Good
OZONE
Current Good
PM2.5
Current Good
OZONE
Tuesday Moderate
PM2.5
Tuesday Good
OZONE

Snow Depth

Station Depth Elevation
No new snow has been reported.

Earthquake Activity

City Distance Mag. Time & Date
No recent earthquake activity has been reported nearby.
Minimum magnitude displayed is 2.5.

Coastal Water Temperatures

Place Temperature
No Stations Reporting

Nearby Weather Stations